createdAt,value
2023-03-10T00:01:32.258Z,5.49
2023-03-10T00:04:00.581Z,5.86
2023-03-10T00:06:30.269Z,5.64
2023-03-10T00:08:57.041Z,5.64
2023-03-10T00:11:23.781Z,5.49
2023-03-10T00:13:50.386Z,5.35
2023-03-10T00:16:25.520Z,5.63
2023-03-10T00:18:52.901Z,5.66
2023-03-10T00:21:25.342Z,5.69
2023-03-10T00:23:52.683Z,5.68
2023-03-10T00:26:21.290Z,5.70
2023-03-10T00:28:48.104Z,5.68
2023-03-10T00:31:17.798Z,5.66
2023-03-10T00:33:44.817Z,5.27
2023-03-10T00:36:14.881Z,5.19
2023-03-10T00:38:43.414Z,5.63
2023-03-10T00:41:15.648Z,5.50
2023-03-10T00:43:42.223Z,4.90
2023-03-10T00:46:09.000Z,5.26
2023-03-10T00:48:36.658Z,5.31
2023-03-10T00:51:04.048Z,5.10
2023-03-10T00:53:30.863Z,5.49
2023-03-10T00:56:09.039Z,5.28
2023-03-10T00:58:35.617Z,5.38
2023-03-10T01:01:04.291Z,5.48
2023-03-10T01:03:31.275Z,5.34
2023-03-10T01:05:57.775Z,5.18
2023-03-10T01:08:24.586Z,5.54
2023-03-10T01:10:51.613Z,5.55
2023-03-10T01:13:19.060Z,5.10
2023-03-10T01:15:45.814Z,5.07
2023-03-10T01:18:12.335Z,5.24
2023-03-10T01:20:38.896Z,5.22
2023-03-10T01:23:05.364Z,5.63
2023-03-10T01:25:31.830Z,4.97
2023-03-10T01:27:58.225Z,5.65
2023-03-10T01:30:24.824Z,5.32
2023-03-10T01:32:51.494Z,5.70
2023-03-10T01:35:18.508Z,5.07
2023-03-10T01:37:45.022Z,5.14
2023-03-10T01:40:14.423Z,5.59
2023-03-10T01:42:41.051Z,5.56
2023-03-10T01:45:15.566Z,5.56
2023-03-10T01:47:45.284Z,5.46
2023-03-10T01:50:17.413Z,5.65
2023-03-10T01:52:47.605Z,5.38
2023-03-10T01:55:21.589Z,4.97
2023-03-10T01:57:52.331Z,5.30
2023-03-10T02:00:20.602Z,5.46
2023-03-10T02:03:24.472Z,5.43
2023-03-10T02:05:58.645Z,5.67
2023-03-10T02:08:30.087Z,5.35
2023-03-10T02:10:57.702Z,5.49
2023-03-10T02:13:24.443Z,5.86
2023-03-10T02:15:51.122Z,5.16
2023-03-10T02:18:19.979Z,5.58
2023-03-10T02:21:03.770Z,5.20
2023-03-10T02:24:02.045Z,5.48
2023-03-10T02:26:37.537Z,5.49
2023-03-10T02:29:08.314Z,5.41
2023-03-10T02:31:36.098Z,4.89
2023-03-10T02:34:04.027Z,5.03
2023-03-10T02:36:30.910Z,5.32
2023-03-10T02:38:57.571Z,5.48
2023-03-10T02:41:29.582Z,5.65
2023-03-10T02:43:59.599Z,5.54
2023-03-10T02:46:26.502Z,5.76
2023-03-10T02:48:52.939Z,5.72
2023-03-10T02:51:26.696Z,6.41
2023-03-10T02:53:53.500Z,6.43
2023-03-10T02:56:20.003Z,6.94
2023-03-10T02:58:46.740Z,6.79
2023-03-10T03:01:13.621Z,6.78
2023-03-10T03:03:40.491Z,7.00
2023-03-10T03:06:07.627Z,6.76
2023-03-10T03:08:34.553Z,6.88
2023-03-10T03:11:02.290Z,7.24
2023-03-10T03:13:29.026Z,7.33
2023-03-10T03:15:55.661Z,7.38
2023-03-10T03:18:22.529Z,7.44
2023-03-10T03:20:49.082Z,7.41
2023-03-10T03:23:15.618Z,6.90
2023-03-10T03:25:42.609Z,7.47
2023-03-10T03:28:12.818Z,7.52
2023-03-10T03:30:40.473Z,7.43
2023-03-10T03:33:07.876Z,7.54
2023-03-10T03:35:36.751Z,7.62
2023-03-10T03:38:05.444Z,7.65
2023-03-10T03:40:34.805Z,7.67
2023-03-10T03:43:02.558Z,7.81
2023-03-10T03:45:30.723Z,7.58
2023-03-10T03:47:57.230Z,7.13
2023-03-10T03:50:24.834Z,6.63
2023-03-10T03:52:51.483Z,6.24
2023-03-10T03:55:19.294Z,6.34
2023-03-10T03:57:46.532Z,6.11
2023-03-10T04:00:22.608Z,6.41
2023-03-10T04:02:49.662Z,6.55
2023-03-10T04:05:16.806Z,6.15
2023-03-10T04:07:44.713Z,6.64
2023-03-10T04:10:14.975Z,6.82
2023-03-10T04:12:41.612Z,6.44
2023-03-10T04:15:08.513Z,6.70
2023-03-10T04:17:36.162Z,6.86
2023-03-10T04:20:07.366Z,7.00
2023-03-10T04:22:35.224Z,7.14
2023-03-10T04:25:03.302Z,6.20
2023-03-10T04:27:31.306Z,6.78
2023-03-10T04:29:58.088Z,7.19
2023-03-10T04:32:24.796Z,7.14
2023-03-10T04:34:51.984Z,6.99
2023-03-10T04:37:19.121Z,6.90
2023-03-10T04:39:45.649Z,6.94
2023-03-10T04:42:12.221Z,7.19
2023-03-10T04:44:38.856Z,6.96
2023-03-10T04:47:05.934Z,6.40
2023-03-10T04:49:32.883Z,7.10
2023-03-10T04:52:00.352Z,6.74
2023-03-10T04:54:26.932Z,6.94
2023-03-10T04:56:56.548Z,7.38
2023-03-10T04:59:23.190Z,7.45
2023-03-10T05:01:49.783Z,7.43
2023-03-10T05:04:16.454Z,7.26
2023-03-10T05:06:42.921Z,7.15
2023-03-10T05:09:09.869Z,7.43
2023-03-10T05:11:36.596Z,7.27
2023-03-10T05:14:03.530Z,6.91
2023-03-10T05:16:30.628Z,7.51
2023-03-10T05:18:57.163Z,7.09
2023-03-10T05:21:23.709Z,6.91
2023-03-10T05:23:50.315Z,7.38
2023-03-10T05:26:17.632Z,7.12
2023-03-10T05:28:44.586Z,7.49
2023-03-10T05:31:13.949Z,7.34
2023-03-10T05:33:41.758Z,7.47
2023-03-10T05:36:10.785Z,7.23
2023-03-10T05:38:38.249Z,7.03
2023-03-10T05:41:09.033Z,7.08
2023-03-10T05:43:37.042Z,7.22
2023-03-10T05:46:04.626Z,7.43
2023-03-10T05:48:32.251Z,7.31
2023-03-10T05:51:05.353Z,7.17
2023-03-10T05:53:33.087Z,7.08
2023-03-10T05:56:00.153Z,7.30
2023-03-10T05:58:26.925Z,7.42
2023-03-10T06:00:53.533Z,7.41
2023-03-10T06:03:20.352Z,7.39
2023-03-10T06:05:47.179Z,7.00
2023-03-10T06:08:13.804Z,7.45
2023-03-10T06:10:40.590Z,7.49
2023-03-10T06:13:07.311Z,7.47
2023-03-10T06:15:34.312Z,7.49
2023-03-10T06:18:01.169Z,7.18
2023-03-10T06:20:29.122Z,6.74
2023-03-10T06:22:55.712Z,7.22
2023-03-10T06:25:22.357Z,7.18
2023-03-10T06:27:49.142Z,7.06
2023-03-10T06:30:16.300Z,7.27
2023-03-10T06:32:43.273Z,7.24
2023-03-10T06:35:13.236Z,7.40
2023-03-10T06:37:40.072Z,6.89
2023-03-10T06:40:09.730Z,7.23
2023-03-10T06:42:37.469Z,7.37
2023-03-10T06:45:04.363Z,7.13
2023-03-10T06:47:30.904Z,6.74
2023-03-10T06:49:57.514Z,7.17
2023-03-10T06:52:24.507Z,7.58
2023-03-10T06:54:51.071Z,7.43
2023-03-10T06:57:20.807Z,7.26
2023-03-10T06:59:47.529Z,7.30
2023-03-10T07:02:14.282Z,7.40
2023-03-10T07:04:40.848Z,7.52
2023-03-10T07:07:08.544Z,7.40
2023-03-10T07:09:35.250Z,7.06
2023-03-10T07:12:01.823Z,7.28
2023-03-10T07:14:28.466Z,7.48
2023-03-10T07:16:55.101Z,7.59
2023-03-10T07:19:21.683Z,7.75
2023-03-10T07:21:48.534Z,7.77
2023-03-10T07:24:16.166Z,7.71
2023-03-10T07:26:43.089Z,7.77
2023-03-10T07:29:09.690Z,7.79
2023-03-10T07:31:36.313Z,7.55
2023-03-10T07:34:03.108Z,7.32
2023-03-10T07:36:29.990Z,7.63
2023-03-10T07:38:56.728Z,7.43
2023-03-10T07:41:23.347Z,7.55
2023-03-10T07:43:54.495Z,7.59
2023-03-10T07:46:21.427Z,7.94
2023-03-10T07:48:48.181Z,8.11
2023-03-10T07:51:15.061Z,8.14
2023-03-10T07:53:41.834Z,8.19
2023-03-10T07:56:10.672Z,8.10
2023-03-10T07:58:38.509Z,8.07
2023-03-10T08:01:05.828Z,8.27
2023-03-10T08:03:33.443Z,7.93
2023-03-10T08:06:00.627Z,8.16
2023-03-10T08:08:28.993Z,7.74
2023-03-10T08:11:07.853Z,7.99
2023-03-10T08:13:34.538Z,7.96
2023-03-10T08:16:01.446Z,7.80
2023-03-10T08:18:29.034Z,8.05
2023-03-10T08:20:56.700Z,7.89
2023-03-10T08:23:24.552Z,8.04
2023-03-10T08:25:51.402Z,8.13
2023-03-10T08:28:17.886Z,7.96
2023-03-10T08:31:02.607Z,8.24
2023-03-10T08:33:30.615Z,8.29
2023-03-10T08:36:09.388Z,8.34
2023-03-10T08:38:36.840Z,8.36
2023-03-10T08:41:25.161Z,8.43
2023-03-10T08:43:53.768Z,8.55
2023-03-10T08:46:22.153Z,8.41
2023-03-10T08:48:50.968Z,8.63
2023-03-10T08:51:18.323Z,8.67
2023-03-10T08:53:47.707Z,8.69
2023-03-10T08:56:15.819Z,8.79
2023-03-10T08:58:43.269Z,8.70
2023-03-10T09:01:10.064Z,8.60
2023-03-10T09:03:41.673Z,8.67
2023-03-10T09:06:09.809Z,8.75
2023-03-10T09:08:36.954Z,8.25
2023-03-10T09:11:03.890Z,8.57
2023-03-10T09:13:30.454Z,8.62
2023-03-10T09:15:57.106Z,8.62
2023-03-10T09:18:23.733Z,8.17
2023-03-10T09:20:50.428Z,8.40
2023-03-10T09:23:17.115Z,8.08
2023-03-10T09:25:43.691Z,8.07
2023-03-10T09:28:11.652Z,8.21
2023-03-10T09:30:42.276Z,8.15
2023-03-10T09:33:16.329Z,8.27
2023-03-10T09:35:48.377Z,8.00
2023-03-10T09:38:19.630Z,7.62
2023-03-10T09:40:57.328Z,7.98
2023-03-10T09:43:24.051Z,8.09
2023-03-10T09:45:59.137Z,8.04
2023-03-10T09:48:40.574Z,8.13
2023-03-10T09:51:21.880Z,8.20
2023-03-10T09:54:00.348Z,8.21
2023-03-10T09:56:33.693Z,7.56
2023-03-10T09:59:07.793Z,8.35
2023-03-10T10:01:34.911Z,8.45
2023-03-10T10:04:10.251Z,7.96
2023-03-10T10:06:42.557Z,8.34
2023-03-10T10:09:11.907Z,7.85
2023-03-10T10:11:40.251Z,7.91
2023-03-10T10:14:29.212Z,8.25
2023-03-10T10:17:06.421Z,8.30
2023-03-10T10:19:36.333Z,8.21
2023-03-10T10:22:27.801Z,8.38
2023-03-10T10:25:10.021Z,8.22
2023-03-10T10:27:38.154Z,7.73
2023-03-10T10:30:29.858Z,8.36
2023-03-10T10:32:59.208Z,8.01
2023-03-10T10:35:55.504Z,7.90
2023-03-10T10:38:31.427Z,8.20
2023-03-10T10:41:16.495Z,8.27
2023-03-10T10:43:45.196Z,7.99
2023-03-10T10:46:14.428Z,8.05
2023-03-10T10:48:43.824Z,7.04
2023-03-10T10:51:23.788Z,7.57
2023-03-10T10:53:50.851Z,7.52
2023-03-10T10:56:19.410Z,8.27
2023-03-10T10:59:00.496Z,7.13
2023-03-10T11:01:27.383Z,8.59
2023-03-10T11:04:07.686Z,8.36
2023-03-10T11:06:34.875Z,8.47
2023-03-10T11:09:08.419Z,8.52
2023-03-10T11:11:40.085Z,8.61
2023-03-10T11:14:45.149Z,8.59
2023-03-10T11:17:34.329Z,8.69
2023-03-10T11:20:31.388Z,8.88
2023-03-10T11:23:19.710Z,8.87
2023-03-10T11:26:04.816Z,8.88
2023-03-10T11:28:55.002Z,8.96
2023-03-10T11:31:43.373Z,9.25
2023-03-10T11:34:23.112Z,8.96
2023-03-10T11:36:58.679Z,9.33
2023-03-10T11:39:44.225Z,9.14
2023-03-10T11:42:22.579Z,8.94
2023-03-10T11:45:23.788Z,6.69
2023-03-10T11:48:15.275Z,6.64
2023-03-10T11:50:51.026Z,6.46
2023-03-10T11:53:28.910Z,6.44
2023-03-10T11:55:57.375Z,5.92
2023-03-10T11:58:51.889Z,6.33
2023-03-10T12:01:28.720Z,5.78
2023-03-10T12:04:37.682Z,5.94
2023-03-10T12:07:11.786Z,5.76
2023-03-10T12:09:49.301Z,5.47
2023-03-10T12:12:28.045Z,5.27
2023-03-10T12:14:57.186Z,5.66
2023-03-10T12:17:23.801Z,5.10
2023-03-10T12:20:24.849Z,5.37
2023-03-10T12:22:54.523Z,3.94
2023-03-10T12:25:32.364Z,5.18
2023-03-10T12:28:17.300Z,5.01
2023-03-10T12:30:47.528Z,4.28
2023-03-10T12:33:32.478Z,4.69
2023-03-10T12:36:09.514Z,4.47
2023-03-10T12:38:45.030Z,4.53
2023-03-10T12:41:35.160Z,4.49
2023-03-10T12:44:20.570Z,4.43
2023-03-10T12:46:55.425Z,4.38
2023-03-10T12:49:27.835Z,4.26
2023-03-10T12:51:59.930Z,4.22
2023-03-10T12:54:51.186Z,4.19
2023-03-10T12:57:36.529Z,4.24
2023-03-10T13:00:18.902Z,4.30
2023-03-10T13:02:53.645Z,3.94
2023-03-10T13:05:33.923Z,4.06
2023-03-10T13:08:16.160Z,3.60
2023-03-10T13:10:44.692Z,4.11
2023-03-10T13:13:16.127Z,3.45
2023-03-10T13:15:43.208Z,3.72
2023-03-10T13:18:12.301Z,4.05
2023-03-10T13:20:39.298Z,3.65
2023-03-10T13:23:05.918Z,3.58
2023-03-10T13:25:32.528Z,4.02
2023-03-10T13:28:08.925Z,3.18
2023-03-10T13:30:35.725Z,3.75
2023-03-10T13:33:02.524Z,3.55
2023-03-10T13:35:30.997Z,3.02
2023-03-10T13:38:16.661Z,3.31
2023-03-10T13:41:06.835Z,2.38
2023-03-10T13:43:36.351Z,2.89
2023-03-10T13:46:05.970Z,2.57
2023-03-10T13:48:34.244Z,2.55
2023-03-10T13:51:23.197Z,2.89
2023-03-10T13:59:40.543Z,2.39
2023-03-10T14:02:26.791Z,2.30
2023-03-10T14:04:54.769Z,1.96
2023-03-10T14:07:30.372Z,2.21
2023-03-10T14:17:33.905Z,1.08
2023-03-10T14:22:44.259Z,1.20
2023-03-10T14:31:22.352Z,0.99
2023-03-10T14:33:49.878Z,1.51
2023-03-10T14:36:17.006Z,1.73
2023-03-10T14:38:47.026Z,1.45
2023-03-10T14:44:01.432Z,1.45
2023-03-10T14:46:30.120Z,1.45
2023-03-10T14:48:57.045Z,1.20
2023-03-10T14:51:35.002Z,0.91
2023-03-10T14:54:02.639Z,1.48
2023-03-10T14:56:30.486Z,1.35
2023-03-10T14:58:57.323Z,1.15
2023-03-10T15:01:24.357Z,1.25
2023-03-10T15:03:51.024Z,1.47
2023-03-10T15:06:19.823Z,1.29
2023-03-10T15:08:46.591Z,1.12
2023-03-10T15:11:37.343Z,0.78
2023-03-10T15:14:18.053Z,1.28
2023-03-10T15:19:33.206Z,0.25
2023-03-10T15:21:59.989Z,0.96
2023-03-10T15:24:46.790Z,0.79
2023-03-10T15:27:14.575Z,0.68
2023-03-10T15:29:41.406Z,0.66
2023-03-10T15:32:08.220Z,0.82
2023-03-10T15:34:35.055Z,0.32
2023-03-10T15:37:01.771Z,0.48
2023-03-10T15:39:32.112Z,0.39
2023-03-10T15:41:59.602Z,0.49
2023-03-10T15:44:26.177Z,0.70
2023-03-10T15:46:52.811Z,0.40
2023-03-10T15:49:19.512Z,0.68
2023-03-10T15:51:46.659Z,0.65
2023-03-10T15:54:13.342Z,0.27
2023-03-10T15:56:39.914Z,0.31
2023-03-10T15:59:06.969Z,0.88
2023-03-10T16:01:34.216Z,0.85
2023-03-10T16:04:00.946Z,1.16
2023-03-10T16:06:29.081Z,1.14
2023-03-10T16:08:55.763Z,1.12
2023-03-10T16:11:22.233Z,0.57
2023-03-10T16:13:48.845Z,1.28
2023-03-10T16:16:19.475Z,1.30
2023-03-10T16:18:48.023Z,1.32
2023-03-10T16:21:17.839Z,1.39
2023-03-10T16:23:45.753Z,0.98
2023-03-10T16:26:21.934Z,0.73
2023-03-10T16:28:51.435Z,1.16
2023-03-10T16:31:27.888Z,1.24
2023-03-10T16:33:55.473Z,-0.03
2023-03-10T16:36:24.505Z,1.58
2023-03-10T16:38:52.103Z,1.69
2023-03-10T16:41:18.759Z,1.65
2023-03-10T16:43:47.493Z,1.50
2023-03-10T16:46:18.073Z,1.31
2023-03-10T16:48:47.359Z,1.11
2023-03-10T16:51:33.936Z,1.49
2023-03-10T16:54:02.792Z,1.13
2023-03-10T16:56:30.611Z,1.06
2023-03-10T16:58:58.132Z,1.34
2023-03-10T17:01:25.332Z,1.23
2023-03-10T17:03:53.813Z,1.28
2023-03-10T17:06:26.789Z,0.05
2023-03-10T17:08:54.473Z,1.03
2023-03-10T17:11:32.928Z,1.48
2023-03-10T17:14:06.243Z,1.38
2023-03-10T17:16:34.775Z,1.39
2023-03-10T17:19:11.182Z,1.40
2023-03-10T17:21:40.492Z,1.51
2023-03-10T17:24:08.228Z,0.74
2023-03-10T17:26:35.873Z,0.73
2023-03-10T17:29:02.932Z,0.85
2023-03-10T17:31:29.855Z,1.06
2023-03-10T17:34:01.910Z,1.13
2023-03-10T17:36:28.885Z,0.95
2023-03-10T17:38:57.053Z,-0.15
2023-03-10T17:41:24.084Z,0.53
2023-03-10T17:43:51.280Z,0.93
2023-03-10T17:46:23.800Z,0.88
2023-03-10T17:48:51.291Z,0.91
2023-03-10T17:51:21.855Z,0.93
2023-03-10T17:53:49.574Z,0.63
2023-03-10T17:56:17.821Z,0.57
2023-03-10T17:58:44.596Z,0.08
2023-03-10T18:01:13.987Z,0.02
2023-03-10T18:03:41.317Z,0.48
2023-03-10T18:06:21.333Z,0.16
2023-03-10T18:08:49.582Z,0.30
2023-03-10T18:11:17.409Z,0.44
2023-03-10T18:13:44.684Z,0.35
2023-03-10T18:16:38.469Z,0.33
2023-03-10T18:19:05.412Z,0.47
2023-03-10T18:21:32.100Z,0.52
2023-03-10T18:23:58.739Z,0.17
2023-03-10T18:26:29.765Z,0.69
2023-03-10T18:28:57.122Z,0.53
2023-03-10T18:31:27.378Z,0.63
2023-03-10T18:33:54.454Z,0.71
2023-03-10T18:36:22.117Z,0.70
2023-03-10T18:38:49.920Z,0.46
2023-03-10T18:41:22.168Z,0.78
2023-03-10T18:43:49.854Z,0.79
2023-03-10T18:46:18.454Z,0.66
2023-03-10T18:48:45.381Z,0.49
2023-03-10T18:51:12.222Z,0.56
2023-03-10T18:53:39.397Z,0.67
2023-03-10T18:56:06.469Z,0.58
2023-03-10T18:58:32.977Z,0.07
2023-03-10T19:00:59.806Z,0.40
2023-03-10T19:03:30.737Z,0.33
2023-03-10T19:05:57.470Z,0.27
2023-03-10T19:08:23.957Z,0.11
2023-03-10T19:10:58.213Z,0.13
2023-03-10T19:13:26.523Z,0.22
2023-03-10T19:15:53.293Z,0.12
2023-03-10T19:18:20.277Z,0.17
2023-03-10T19:20:47.865Z,0.46
2023-03-10T19:23:15.064Z,0.52
2023-03-10T19:25:41.736Z,0.64
2023-03-10T19:28:08.405Z,0.32
2023-03-10T19:30:35.204Z,0.46
2023-03-10T19:33:01.841Z,0.58
2023-03-10T19:35:28.636Z,0.52
2023-03-10T19:37:55.360Z,0.55
2023-03-10T19:40:22.087Z,0.39
2023-03-10T19:42:50.363Z,0.42
2023-03-10T19:45:19.337Z,0.44
2023-03-10T19:47:47.238Z,0.18
2023-03-10T19:50:17.941Z,0.52
2023-03-10T19:52:47.874Z,0.19
2023-03-10T19:55:18.468Z,0.76
2023-03-10T19:57:49.528Z,0.71
2023-03-10T20:00:19.718Z,0.75
2023-03-10T20:02:46.326Z,0.75
2023-03-10T20:05:16.224Z,0.21
2023-03-10T20:07:44.564Z,0.90
2023-03-10T20:10:12.099Z,0.56
2023-03-10T20:12:38.650Z,0.78
2023-03-10T20:15:06.747Z,0.88
2023-03-10T20:17:33.427Z,0.58
2023-03-10T20:19:59.987Z,0.96
2023-03-10T20:22:26.570Z,0.54
2023-03-10T20:24:53.348Z,1.09
2023-03-10T20:27:19.905Z,1.15
2023-03-10T20:29:47.902Z,1.24
2023-03-10T20:32:14.754Z,1.07
2023-03-10T20:34:41.577Z,0.79
2023-03-10T20:37:08.128Z,1.16
2023-03-10T20:39:34.639Z,1.28
2023-03-10T20:42:01.270Z,1.00
2023-03-10T20:44:27.831Z,0.42
2023-03-10T20:46:54.460Z,0.97
2023-03-10T20:49:21.121Z,0.98
2023-03-10T20:51:48.742Z,1.13
2023-03-10T20:54:15.339Z,1.07
2023-03-10T20:56:41.945Z,1.03
2023-03-10T20:59:08.647Z,1.05
2023-03-10T21:01:35.311Z,0.65
2023-03-10T21:04:02.067Z,0.86
2023-03-10T21:06:28.786Z,0.56
2023-03-10T21:08:55.503Z,0.95
2023-03-10T21:11:22.239Z,0.72
2023-03-10T21:13:49.248Z,0.98
2023-03-10T21:16:21.048Z,0.89
2023-03-10T21:18:48.372Z,0.72
2023-03-10T21:21:14.936Z,0.56
2023-03-10T21:23:42.217Z,0.48
2023-03-10T21:26:14.873Z,0.43
2023-03-10T21:28:42.079Z,0.55
2023-03-10T21:31:09.444Z,0.79
2023-03-10T21:33:36.068Z,0.77
2023-03-10T21:36:02.926Z,0.73
2023-03-10T21:38:29.447Z,0.59
2023-03-10T21:40:56.301Z,0.43
2023-03-10T21:43:22.998Z,0.46
2023-03-10T21:45:49.771Z,0.50
2023-03-10T21:48:16.415Z,0.38
2023-03-10T21:50:43.493Z,0.27
2023-03-10T21:53:10.458Z,0.43
2023-03-10T21:55:37.387Z,0.44
2023-03-10T21:58:05.084Z,0.52
2023-03-10T22:00:32.399Z,0.08
2023-03-10T22:02:59.271Z,0.46
2023-03-10T22:05:27.129Z,0.06
2023-03-10T22:07:53.882Z,0.16
2023-03-10T22:10:20.602Z,0.12
2023-03-10T22:12:47.889Z,0.17
2023-03-10T22:15:20.813Z,0.33
2023-03-10T22:17:48.456Z,0.05
2023-03-10T22:20:23.898Z,0.28
2023-03-10T22:22:51.035Z,0.20
2023-03-10T22:25:19.688Z,0.25
2023-03-10T22:27:50.896Z,0.26
2023-03-10T22:30:22.488Z,0.17
2023-03-10T22:32:49.772Z,0.08
2023-03-10T22:35:19.105Z,0.28
2023-03-10T22:37:46.042Z,-0.35
2023-03-10T22:40:16.217Z,0.02
2023-03-10T22:42:43.849Z,0.27
2023-03-10T22:45:23.046Z,-0.31
2023-03-10T22:47:51.890Z,0.03
2023-03-10T22:50:25.210Z,0.17
2023-03-10T22:52:52.025Z,0.00
2023-03-10T22:55:21.418Z,0.01
2023-03-10T22:57:48.847Z,-0.43
2023-03-10T23:00:19.799Z,-0.38
2023-03-10T23:02:48.236Z,-0.15
2023-03-10T23:05:15.243Z,-0.84
2023-03-10T23:07:42.686Z,-0.24
2023-03-10T23:10:16.077Z,0.00
2023-03-10T23:12:42.799Z,-0.10
2023-03-10T23:15:24.020Z,-0.09
2023-03-10T23:17:52.025Z,-0.10
2023-03-10T23:20:19.967Z,-0.28
2023-03-10T23:22:47.845Z,-0.76
2023-03-10T23:25:26.214Z,-0.49
2023-03-10T23:27:53.177Z,-0.59
2023-03-10T23:30:20.327Z,-0.89
2023-03-10T23:32:49.794Z,-0.76
2023-03-10T23:35:20.211Z,-0.97
2023-03-10T23:37:48.102Z,-1.08
2023-03-10T23:40:17.453Z,-0.77
2023-03-10T23:42:44.542Z,-0.70
2023-03-10T23:45:14.121Z,-1.06
2023-03-10T23:47:41.302Z,-1.25
2023-03-10T23:50:09.261Z,-0.91
2023-03-10T23:52:35.836Z,-1.20
2023-03-10T23:55:02.979Z,-0.73
2023-03-10T23:57:29.617Z,-1.06
2023-03-10T23:59:56.267Z,-0.98
